| time (UTC) | temp F | wind direction | speed knots | gust knots | rain 1hr in | rain 24hr in | rain mn in | humidity % | barometer mb |
| 20260906051524 | 58 | 240 | 0.0 | 0.0 | 0.00 | 0.00 | 0.00 | 94 | 1025.6 |
| 20260906050020 | 58 | 240 | 0.0 | 0.0 | 0.00 | 0.00 | 0.00 | 94 | 1025.2 |
| 20260906044514 | 58 | 240 | 0.0 | 0.0 | 0.00 | 0.00 | 0.00 | 94 | 1025.2 |
| 20260906043038 | 58 | 240 | 0.0 | 0.0 | 0.00 | 0.00 | 0.00 | 94 | 1025.0 |
| 20260906041523 | 57 | 240 | 0.0 | 0.0 | 0.00 | 0.00 | 0.00 | 94 | 1024.8 |
| 20260906040020 | 58 | 240 | 0.0 | 0.0 | 0.00 | 0.00 | 0.00 | 93 | 1024.8 |
| 20260906034523 | 58 | 240 | 0.0 | 0.0 | 0.00 | 0.00 | 0.00 | 94 | 1024.6 |
| 20260906033016 | 58 | 240 | 0.0 | 0.0 | 0.00 | 0.00 | 0.00 | 94 | 1024.4 |
| 20260906031514 | 58 | 240 | 0.0 | 0.0 | 0.00 | 0.00 | 0.00 | 93 | 1024.3 |
| 20260906030013 | 59 | 240 | 0.0 | 0.0 | 0.00 | 0.00 | 0.00 | 93 | 1024.2 |
| 20260906024511 | 59 | 240 | 0.0 | 0.0 | 0.00 | 0.00 | 0.00 | 93 | 1024.1 |
| 20260906023011 | 60 | 240 | 0.0 | 0.0 | 0.00 | 0.00 | 0.00 | 93 | 1024.0 |
| 20260906021509 | 60 | 240 | 0.0 | 0.0 | 0.00 | 0.00 | 0.00 | 92 | 1024.1 |
| 20260906020006 | 61 | 240 | 0.0 | 0.0 | 0.00 | 0.00 | 0.00 | 92 | 1024.1 |
| 20260906014504 | 61 | 240 | 0.0 | 0.0 | 0.00 | 0.00 | 0.00 | 92 | 1023.9 |
| 20260906013002 | 62 | 240 | 0.0 | 0.0 | 0.00 | 0.00 | 0.00 | 91 | 1023.7 |
| 20260906011502 | 62 | 240 | 0.0 | 0.0 | 0.00 | 0.00 | 0.00 | 91 | 1023.8 |
| 20260906010059 | 62 | 240 | 0.0 | 0.0 | 0.00 | 0.00 | 0.00 | 90 | 1023.8 |
| 20260906004608 | 63 | 240 | 0.0 | 0.0 | 0.00 | 0.00 | 0.00 | 89 | 1023.6 |
| 20260906003056 | 63 | 240 | 0.0 | 0.0 | 0.00 | 0.00 | 0.00 | 91 | 1023.6 |
| 20260906001554 | 63 | 240 | 0.0 | 0.0 | 0.00 | 0.00 | 0.00 | 90 | 1023.5 |
| 20260906000105 | 63 | 240 | 0.0 | 0.0 | 0.00 | 0.00 | 0.00 | 90 | 1023.5 |
| 20260905234556 | 63 | 240 | 0.0 | 0.0 | 0.00 | 0.00 | 0.00 | 89 | 1023.2 |
| 20260905233054 | 63 | 240 | 0.0 | 0.0 | 0.00 | 0.00 | 0.00 | 90 | 1023.2 |
| 20260905231550 | 63 | 240 | 0.0 | 0.0 | 0.00 | 0.00 | 0.00 | 89 | 1023.2 |
| 20260905230048 | 64 | 240 | 0.0 | 0.0 | 0.00 | 0.00 | 0.00 | 89 | 1023.1 |
| 20260905224600 | 63 | 240 | 0.0 | 0.0 | 0.00 | 0.00 | 0.00 | 89 | 1023.0 |
| 20260905223044 | 64 | 240 | 0.0 | 0.0 | 0.00 | 0.00 | 0.00 | 87 | 1022.9 |
| 20260905221543 | 65 | 240 | 0.0 | 0.0 | 0.00 | 0.00 | 0.00 | 86 | 1022.8 |
| 20260905220037 | 66 | 240 | 0.0 | 0.0 | 0.00 | 0.00 | 0.00 | 85 | 1022.7 |
| 20260905214538 | 66 | 240 | 0.0 | 0.0 | 0.00 | 0.00 | 0.00 | 85 | 1022.8 |
| 20260905213036 | 66 | 240 | 0.0 | 0.9 | 0.00 | 0.00 | 0.00 | 85 | 1022.6 |
| 20260905211536 | 66 | 240 | 0.0 | 0.9 | 0.00 | 0.00 | 0.00 | 84 | 1022.5 |
| 20260905210034 | 66 | 240 | 0.0 | 0.0 | 0.00 | 0.00 | 0.00 | 84 | 1022.4 |
| 20260905204534 | 66 | 240 | 0.0 | 0.9 | 0.00 | 0.00 | 0.00 | 83 | 1022.4 |
| 20260905203033 | 67 | 240 | 0.0 | 0.9 | 0.00 | 0.00 | 0.00 | 83 | 1022.2 |
| 20260905201535 | 68 | 240 | 0.0 | 0.0 | 0.00 | 0.00 | 0.00 | 81 | 1022.1 |
| 20260905200039 | 69 | 240 | 0.0 | 3.5 | 0.00 | 0.00 | 0.00 | 79 | 1022.0 |
| 20260905194529 | 69 | 324 | 0.0 | 3.5 | 0.00 | 0.00 | 0.00 | 79 | 1021.9 |
| 20260905193029 | 70 | 91 | 0.0 | 1.7 | 0.00 | 0.00 | 0.00 | 76 | 1021.7 |
| 20260905191532 | 70 | 60 | 0.0 | 1.7 | 0.00 | 0.00 | 0.00 | 75 | 1021.5 |
| 20260905190041 | 70 | 64 | 0.9 | 3.5 | 0.00 | 0.00 | 0.00 | 75 | 1021.3 |
| 20260905184524 | 70 | 271 | 0.0 | 4.3 | 0.00 | 0.00 | 0.00 | 74 | 1021.4 |
| 20260905183023 | 70 | 334 | 0.9 | 5.2 | 0.00 | 0.00 | 0.00 | 73 | 1021.0 |
| 20260905181525 | 71 | 355 | 1.7 | 5.2 | 0.00 | 0.00 | 0.00 | 73 | 1020.7 |
| 20260905180021 | 72 | 322 | 0.9 | 4.3 | 0.00 | 0.00 | 0.00 | 72 | 1020.6 |
| 20260905174516 | 73 | 348 | 0.9 | 5.2 | 0.00 | 0.00 | 0.00 | 70 | 1020.2 |
| 20260905173015 | 73 | 330 | 3.5 | 7.0 | 0.00 | 0.00 | 0.00 | 67 | 1020.0 |
| 20260905171514 | 75 | 348 | 1.7 | 5.2 | 0.00 | 0.00 | 0.00 | 65 | 1019.8 |
| 20260905170012 | 76 | 9 | 1.7 | 4.3 | 0.00 | 0.00 | 0.00 | 62 | 1019.8 |
| 20260905164510 | 77 | 81 | 0.9 | 5.2 | 0.00 | 0.00 | 0.00 | 61 | 1019.3 |
| 20260905163012 | 77 | 346 | 1.7 | 7.0 | 0.00 | 0.00 | 0.00 | 61 | 1019.3 |
| 20260905161510 | 77 | 348 | 4.3 | 8.7 | 0.00 | 0.00 | 0.00 | 59 | 1019.4 |
| 20260905160010 | 78 | 5 | 2.6 | 7.8 | 0.00 | 0.00 | 0.00 | 58 | 1019.3 |
| 20260905154506 | 78 | 57 | 3.5 | 9.6 | 0.00 | 0.00 | 0.00 | 56 | 1019.1 |
| 20260905153005 | 80 | 19 | 3.5 | 9.6 | 0.00 | 0.00 | 0.00 | 54 | 1018.8 |
| 20260905151505 | 80 | 323 | 1.7 | 9.6 | 0.00 | 0.00 | 0.00 | 54 | 1018.6 |
| 20260905144602 | 83 | 355 | 3.5 | 7.8 | 0.00 | 0.00 | 0.00 | 50 | 1018.3 |
| 20260905143058 | 84 | 90 | 4.3 | 9.6 | 0.00 | 0.00 | 0.00 | 49 | 1017.9 |
| 20260905141558 | 84 | 19 | 5.2 | 11.3 | 0.00 | 0.00 | 0.00 | 49 | 1017.8 |
| 20260905140106 | 83 | 49 | 3.5 | 13.0 | 0.00 | 0.00 | 0.00 | 51 | 1018.0 |
| 20260905134556 | 85 | 175 | 3.5 | 11.3 | 0.00 | 0.00 | 0.00 | 53 | 1017.8 |
| 20260905133102 | 86 | 91 | 2.6 | 8.7 | 0.00 | 0.00 | 0.00 | 52 | 1017.5 |
| 20260905131607 | 87 | 340 | 3.5 | 8.7 | 0.00 | 0.00 | 0.00 | 51 | 1017.5 |
| 20260905130053 | 89 | 30 | 3.5 | 8.7 | 0.00 | 0.00 | 0.00 | 46 | 1017.3 |
| 20260905124551 | 89 | 97 | 2.6 | 5.2 | 0.00 | 0.00 | 0.00 | 42 | 1017.1 |
| 20260905123050 | 87 | 35 | 0.9 | 5.2 | 0.00 | 0.00 | 0.00 | 43 | 1017.4 |
| 20260905121552 | 89 | 93 | 0.9 | 2.6 | 0.00 | 0.00 | 0.00 | 41 | 1017.3 |
| 20260905120047 | 88 | 158 | 0.0 | 1.7 | 0.00 | 0.00 | 0.00 | 42 | 1017.4 |
| 20260905114547 | 87 | 289 | 0.9 | 5.2 | 0.00 | 0.00 | 0.00 | 44 | 1017.4 |
| 20260905113045 | 88 | 38 | 1.7 | 6.1 | 0.00 | 0.00 | 0.00 | 43 | 1017.4 |
| 20260905111602 | 86 | 21 | 1.7 | 6.1 | 0.00 | 0.00 | 0.00 | 47 | 1017.5 |
| 20260905110041 | 86 | 82 | 2.6 | 5.2 | 0.00 | 0.00 | 0.00 | 46 | 1017.6 |
| 20260905104539 | 86 | 343 | 0.0 | 4.3 | 0.00 | 0.00 | 0.00 | 46 | 1017.6 |
| 20260905103038 | 85 | 80 | 0.0 | 3.5 | 0.00 | 0.00 | 0.00 | 47 | 1017.6 |
| 20260905101535 | 83 | 343 | 0.9 | 3.5 | 0.00 | 0.00 | 0.00 | 50 | 1017.6 |
| 20260905100032 | 82 | 86 | 0.0 | 4.3 | 0.00 | 0.00 | 0.00 | 52 | 1017.5 |
| 20260905094531 | 82 | 49 | 0.9 | 4.3 | 0.00 | 0.00 | 0.00 | 53 | 1017.8 |
| 20260905093028 | 81 | 321 | 0.9 | 3.5 | 0.00 | 0.00 | 0.00 | 55 | 1017.8 |
| 20260905091627 | 80 | 329 | 0.0 | 0.9 | 0.00 | 0.00 | 0.00 | 58 | 1017.8 |
| 20260905090026 | 80 | 320 | 0.0 | 3.5 | 0.00 | 0.00 | 0.00 | 55 | 1017.7 |
| 20260905084527 | 80 | 37 | 0.0 | 1.7 | 0.00 | 0.00 | 0.00 | 59 | 1017.6 |
| 20260905083022 | 79 | 96 | 0.9 | 4.3 | 0.00 | 0.00 | 0.00 | 58 | 1017.5 |
| 20260905081520 | 78 | 319 | 0.9 | 2.6 | 0.00 | 0.00 | 0.00 | 63 | 1017.6 |
| 20260905080016 | 76 | 118 | 0.0 | 3.5 | 0.00 | 0.00 | 0.00 | 69 | 1017.6 |
| 20260905074514 | 75 | 118 | 0.0 | 1.7 | 0.00 | 0.00 | 0.00 | 71 | 1017.4 |
| 20260905073014 | 73 | 118 | 0.9 | 2.6 | 0.00 | 0.00 | 0.00 | 72 | 1017.3 |
| 20260905071521 | 73 | 118 | 0.0 | 1.7 | 0.00 | 0.00 | 0.00 | 71 | 1017.4 |
| 20260905070008 | 72 | 118 | 0.0 | 3.5 | 0.00 | 0.00 | 0.00 | 73 | 1017.2 |
| 20260905064507 | 71 | 118 | 0.9 | 1.7 | 0.00 | 0.00 | 0.00 | 74 | 1017.1 |
| 20260905063006 | 69 | 118 | 1.7 | 4.3 | 0.00 | 0.00 | 0.00 | 75 | 1017.0 |
| 20260905061508 | 69 | 117 | 0.9 | 3.5 | 0.00 | 0.00 | 0.00 | 78 | 1017.1 |
| 20260905060005 | 69 | 350 | 0.0 | 1.7 | 0.00 | 0.00 | 0.00 | 80 | 1017.3 |
| 20260905054510 | 68 | 351 | 0.0 | 3.5 | 0.00 | 0.00 | 0.00 | 82 | 1017.0 |
| 20260905053003 | 67 | 337 | 0.0 | 4.3 | 0.00 | 0.00 | 0.00 | 83 | 1017.1 |